createdAt,value
2017-11-14T00:06:27.478Z,0
2017-11-14T00:16:27.491Z,0
2017-11-14T00:26:27.414Z,0
2017-11-14T00:36:27.483Z,0
2017-11-14T00:46:28.240Z,0
2017-11-14T00:56:27.556Z,0
2017-11-14T01:06:27.471Z,0
2017-11-14T01:16:27.519Z,0
2017-11-14T01:26:27.539Z,0
2017-11-14T01:36:27.565Z,0
2017-11-14T01:46:27.503Z,0
2017-11-14T01:56:27.589Z,0
2017-11-14T02:06:27.537Z,0
2017-11-14T02:16:27.563Z,0
2017-11-14T02:26:27.512Z,0
2017-11-14T02:36:27.671Z,0
2017-11-14T02:46:27.659Z,0
2017-11-14T02:56:27.583Z,0
2017-11-14T03:06:27.608Z,0
2017-11-14T03:16:27.569Z,0
2017-11-14T03:26:27.640Z,0
2017-11-14T03:36:27.592Z,0
2017-11-14T03:46:27.724Z,0
2017-11-14T03:56:27.676Z,0
2017-11-14T04:06:27.590Z,0
2017-11-14T04:16:27.643Z,0
2017-11-14T04:26:27.637Z,0
2017-11-14T04:36:27.671Z,0
2017-11-14T04:46:27.444Z,0
2017-11-14T04:56:27.595Z,0
2017-11-14T05:06:27.518Z,0
2017-11-14T05:16:27.563Z,0
2017-11-14T05:26:27.516Z,0
2017-11-14T05:36:27.595Z,0
2017-11-14T05:46:27.579Z,0
2017-11-14T05:56:27.658Z,0
2017-11-14T06:06:27.617Z,0
2017-11-14T06:16:27.553Z,0
2017-11-14T06:26:27.592Z,0
2017-11-14T06:36:27.544Z,0
2017-11-14T06:46:27.620Z,0
2017-11-14T06:56:27.643Z,5
2017-11-14T07:06:27.681Z,10
2017-11-14T07:16:27.652Z,15
2017-11-14T07:26:27.683Z,30
2017-11-14T07:36:27.645Z,35
2017-11-14T07:46:27.610Z,45
2017-11-14T07:56:27.761Z,45
2017-11-14T08:06:27.691Z,45
2017-11-14T08:16:27.698Z,55
2017-11-14T08:26:27.681Z,55
2017-11-14T08:36:27.723Z,50
2017-11-14T08:46:27.641Z,40
2017-11-14T08:56:27.713Z,55
2017-11-14T09:06:27.684Z,60
2017-11-14T09:16:27.647Z,75
2017-11-14T09:26:27.675Z,75
2017-11-14T09:36:27.675Z,90
2017-11-14T09:46:27.672Z,115
2017-11-14T09:56:27.831Z,90
2017-11-14T10:06:27.844Z,95
2017-11-14T10:16:27.657Z,95
2017-11-14T10:26:27.762Z,110
2017-11-14T10:36:28.090Z,90
2017-11-14T10:46:28.170Z,105
2017-11-14T10:56:27.810Z,90
2017-11-14T11:06:27.751Z,70
2017-11-14T11:16:27.914Z,80
2017-11-14T11:26:27.783Z,90
2017-11-14T11:36:27.824Z,95
2017-11-14T11:46:27.865Z,120
2017-11-14T11:56:27.849Z,130
2017-11-14T12:06:27.880Z,115
2017-11-14T12:16:27.927Z,110
2017-11-14T12:26:27.816Z,90
2017-11-14T12:36:27.907Z,75
2017-11-14T12:46:27.818Z,85
2017-11-14T12:56:27.805Z,85
2017-11-14T13:06:27.842Z,85
2017-11-14T13:16:28.000Z,85
2017-11-14T13:26:27.865Z,60
2017-11-14T13:36:27.861Z,50
2017-11-14T13:46:27.927Z,35
2017-11-14T13:56:28.007Z,35
2017-11-14T14:06:28.020Z,25
2017-11-14T14:16:27.989Z,20
2017-11-14T14:26:28.189Z,20
2017-11-14T14:36:28.042Z,20
2017-11-14T14:46:28.002Z,20
2017-11-14T14:56:28.042Z,10
2017-11-14T15:06:28.424Z,10
2017-11-14T15:16:28.117Z,5
2017-11-14T15:26:28.351Z,0
2017-11-14T15:36:28.029Z,0
2017-11-14T15:46:28.566Z,0
2017-11-14T15:56:28.370Z,0
2017-11-14T16:06:28.957Z,0
2017-11-14T16:16:28.254Z,0
2017-11-14T16:26:28.155Z,0
2017-11-14T16:36:28.694Z,0
2017-11-14T16:46:28.115Z,0
2017-11-14T16:56:28.303Z,0
2017-11-14T17:06:29.043Z,0
2017-11-14T17:16:28.036Z,0
2017-11-14T17:26:28.652Z,0
2017-11-14T17:36:28.155Z,0
2017-11-14T17:46:28.303Z,0
2017-11-14T17:56:28.261Z,0
2017-11-14T18:06:29.229Z,0
2017-11-14T18:16:28.920Z,0
2017-11-14T18:26:29.375Z,0
2017-11-14T18:36:28.475Z,0
2017-11-14T18:46:28.630Z,0
2017-11-14T18:56:29.120Z,0
2017-11-14T19:06:28.989Z,0
2017-11-14T19:16:28.954Z,0
2017-11-14T19:26:29.751Z,0
2017-11-14T19:36:30.839Z,0
2017-11-14T19:46:32.915Z,0
2017-11-14T19:56:42.917Z,0
2017-11-14T20:06:31.801Z,0
2017-11-14T20:16:30.509Z,0
2017-11-14T20:26:30.818Z,0
2017-11-14T20:36:29.119Z,0
2017-11-14T20:46:28.960Z,0
2017-11-14T20:56:29.176Z,0
2017-11-14T21:06:30.968Z,0
2017-11-14T21:16:33.975Z,0
2017-11-14T21:26:30.653Z,0
2017-11-14T21:36:28.409Z,0
2017-11-14T21:46:30.303Z,0
2017-11-14T21:56:29.075Z,0
2017-11-14T22:06:40.135Z,0
2017-11-14T22:16:30.475Z,0
2017-11-14T22:26:28.527Z,0
2017-11-14T22:36:29.013Z,0
2017-11-14T22:46:28.346Z,0
2017-11-14T22:56:28.407Z,0
2017-11-14T23:06:28.424Z,0
2017-11-14T23:16:28.355Z,0
2017-11-14T23:26:28.389Z,0
2017-11-14T23:36:28.371Z,0
2017-11-14T23:46:28.429Z,0
2017-11-14T23:56:28.546Z,0
